Terminal Aerodrome Forecast
Issued by NWS

Home | Current Version | Previous Version | Text Only | Print | Product List | Glossary On
Versions: 1 2 3 4 5 6 7 8 9 10 11 12 13 14
000
FTUS42 KTBW 262125 AAA
TAFRSW
TAF AMD
KRSW 262125Z 2621/2718 25006KT P6SM SCT040
      TEMPO 2621/2622 VRB10G20KT 3SM TSRA BKN025CB
     FM262200 27009KT P6SM VCTS SCT050CB
     FM270200 VRB03KT P6SM FEW040
     FM271400 VRB03KT P6SM SKC=

USA.gov is the U.S. government's official web portal to all federal, state and local government web resources and services.